createdAt,value
2023-02-04T00:00:17.533Z,1021.94
2023-02-04T00:01:18.157Z,1021.89
2023-02-04T00:02:18.460Z,1021.80
2023-02-04T00:03:17.597Z,1021.86
2023-02-04T00:04:17.770Z,1021.83
2023-02-04T00:05:18.707Z,1021.92
2023-02-04T00:06:18.738Z,1021.85
2023-02-04T00:07:18.310Z,1021.84
2023-02-04T00:08:18.472Z,1021.91
2023-02-04T00:09:18.652Z,1021.83
2023-02-04T00:10:18.815Z,1021.80
2023-02-04T00:11:18.998Z,1021.86
2023-02-04T00:12:19.686Z,1021.81
2023-02-04T00:13:20.173Z,1021.84
2023-02-04T00:14:19.465Z,1021.90
2023-02-04T00:15:20.218Z,1021.86
2023-02-04T00:16:20.708Z,1021.91
2023-02-04T00:17:20.141Z,1021.98
2023-02-04T00:18:22.105Z,1021.92
2023-02-04T00:19:21.460Z,1021.97
2023-02-04T00:20:21.215Z,1021.96
2023-02-04T00:21:21.713Z,1021.99
2023-02-04T00:22:21.002Z,1021.95
2023-02-04T00:23:23.170Z,1022.03
2023-02-04T00:24:21.442Z,1021.98
2023-02-04T00:25:22.220Z,1021.97
2023-02-04T00:26:21.761Z,1022.02
2023-02-04T00:27:22.539Z,1022.04
2023-02-04T00:28:22.063Z,1022.01
2023-02-04T00:29:22.262Z,1022.07
2023-02-04T00:30:24.545Z,1022.03
2023-02-04T00:31:23.308Z,1022.03
2023-02-04T00:32:22.837Z,1022.10
2023-02-04T00:33:23.032Z,1022.09
2023-02-04T00:34:23.216Z,1022.17
2023-02-04T00:35:23.400Z,1022.14
2023-02-04T00:36:23.545Z,1022.15
2023-02-04T00:37:23.703Z,1022.16
2023-02-04T00:38:23.857Z,1022.11
2023-02-04T00:39:24.678Z,1022.08
2023-02-04T00:40:26.073Z,1022.17
2023-02-04T00:41:25.224Z,1022.18
2023-02-04T00:42:24.462Z,1022.16
2023-02-04T00:43:24.622Z,1022.17
2023-02-04T00:44:25.718Z,1022.07
2023-02-04T00:45:25.728Z,1022.14
2023-02-04T00:46:25.153Z,1022.17
2023-02-04T00:47:25.347Z,1022.16
2023-02-04T00:48:26.830Z,1022.16
2023-02-04T00:49:26.693Z,1022.15
2023-02-04T00:50:25.842Z,1022.20
2023-02-04T00:51:26.042Z,1022.22
2023-02-04T00:52:26.224Z,1022.17
2023-02-04T00:53:26.393Z,1022.20
2023-02-04T00:54:26.570Z,1022.17
2023-02-04T00:55:26.703Z,1022.17
2023-02-04T00:56:26.879Z,1022.28
2023-02-04T00:57:27.690Z,1022.30
2023-02-04T00:59:00.602Z,1022.27
2023-02-04T00:59:27.339Z,1022.33
2023-02-04T01:00:27.689Z,1022.30
2023-02-04T01:01:30.209Z,1022.27
2023-02-04T01:02:27.957Z,1022.33
2023-02-04T01:03:28.058Z,1022.30
2023-02-04T01:04:28.275Z,1022.32
2023-02-04T01:05:28.452Z,1022.41
2023-02-04T01:06:28.647Z,1022.50
2023-02-04T01:07:28.861Z,1022.48
2023-02-04T01:08:29.058Z,1022.46
2023-02-04T01:09:29.760Z,1022.49
2023-02-04T01:10:29.842Z,1022.50
2023-02-04T01:11:30.254Z,1022.54
2023-02-04T01:12:31.792Z,1022.55
2023-02-04T01:13:30.736Z,1022.56
2023-02-04T01:14:30.278Z,1022.56
2023-02-04T01:15:31.223Z,1022.55
2023-02-04T01:16:30.629Z,1022.59
2023-02-04T01:17:30.777Z,1022.61
2023-02-04T01:18:30.932Z,1022.62
2023-02-04T01:19:31.069Z,1022.66
2023-02-04T01:20:31.515Z,1022.69
2023-02-04T01:21:32.218Z,1022.73
2023-02-04T01:22:31.598Z,1022.76
2023-02-04T01:23:31.787Z,1022.69
2023-02-04T01:24:31.953Z,1022.67
2023-02-04T01:25:32.082Z,1022.71
2023-02-04T01:26:32.225Z,1022.74
2023-02-04T01:27:32.356Z,1022.71
2023-02-04T01:28:33.217Z,1022.79
2023-02-04T01:29:32.721Z,1022.72
2023-02-04T01:30:34.156Z,1022.74
2023-02-04T01:31:34.792Z,1022.71
2023-02-04T01:32:33.250Z,1022.75
2023-02-04T01:33:33.373Z,1022.81
2023-02-04T01:34:34.729Z,1022.81
2023-02-04T01:35:33.727Z,1022.79
2023-02-04T01:36:33.872Z,1022.85
2023-02-04T01:37:34.044Z,1022.87
2023-02-04T01:38:34.212Z,1022.81
2023-02-04T01:39:34.365Z,1022.83
2023-02-04T01:40:34.537Z,1022.83
2023-02-04T01:41:34.726Z,1022.88
2023-02-04T01:42:34.919Z,1023.01
2023-02-04T01:43:35.087Z,1022.96
2023-02-04T01:44:35.770Z,1023.00
2023-02-04T01:45:36.372Z,1023.02
2023-02-04T01:46:35.579Z,1022.90
2023-02-04T01:47:35.795Z,1023.01
2023-02-04T01:48:36.725Z,1023.03
2023-02-04T01:49:36.769Z,1023.07
2023-02-04T01:50:37.229Z,1023.09
2023-02-04T01:51:36.500Z,1023.07
2023-02-04T01:52:36.692Z,1023.06
2023-02-04T01:53:36.862Z,1023.02
2023-02-04T01:54:37.016Z,1023.01
2023-02-04T01:55:37.196Z,1023.07
2023-02-04T01:56:37.382Z,1023.06
2023-02-04T01:57:37.784Z,1023.07
2023-02-04T01:58:37.701Z,1023.07
2023-02-04T01:59:37.881Z,1023.02
2023-02-04T02:00:38.081Z,1023.09
2023-02-04T02:01:38.772Z,1023.17
2023-02-04T02:02:38.505Z,1023.18
2023-02-04T02:03:38.603Z,1023.15
2023-02-04T02:04:40.594Z,1023.21
2023-02-04T02:05:39.025Z,1023.16
2023-02-04T02:06:39.773Z,1023.17
2023-02-04T02:07:39.415Z,1023.13
2023-02-04T02:08:39.600Z,1023.21
2023-02-04T02:09:39.785Z,1023.16
2023-02-04T02:10:40.282Z,1023.27
2023-02-04T02:11:40.110Z,1023.25
2023-02-04T02:12:40.276Z,1023.24
2023-02-04T02:13:40.465Z,1023.27
2023-02-04T02:14:40.628Z,1023.24
2023-02-04T02:15:40.795Z,1023.22
2023-02-04T02:16:41.804Z,1023.23
2023-02-04T02:17:41.231Z,1023.25
2023-02-04T02:18:41.398Z,1023.28
2023-02-04T02:19:42.734Z,1023.23
2023-02-04T02:20:41.764Z,1023.23
2023-02-04T02:21:41.934Z,1023.20
2023-02-04T02:22:43.234Z,1023.17
2023-02-04T02:23:42.253Z,1023.16
2023-02-04T02:24:42.460Z,1023.18
2023-02-04T02:25:44.236Z,1023.18
2023-02-04T02:26:42.770Z,1023.23
2023-02-04T02:27:43.291Z,1023.18
2023-02-04T02:29:17.244Z,1023.19
2023-02-04T02:29:44.317Z,1023.25
2023-02-04T02:30:43.655Z,1023.30
2023-02-04T02:31:43.929Z,1023.29
2023-02-04T02:32:43.911Z,1023.30
2023-02-04T02:33:44.817Z,1023.41
2023-02-04T02:34:44.210Z,1023.44
2023-02-04T02:35:44.392Z,1023.42
2023-02-04T02:36:44.569Z,1023.35
2023-02-04T02:37:44.750Z,1023.33
2023-02-04T02:38:44.913Z,1023.34
2023-02-04T02:39:45.811Z,1023.37
2023-02-04T02:40:45.812Z,1023.26
2023-02-04T02:41:46.282Z,1023.25
2023-02-04T02:42:45.687Z,1023.24
2023-02-04T02:43:45.855Z,1023.22
2023-02-04T02:44:46.805Z,1023.21
2023-02-04T02:45:46.265Z,1023.24
2023-02-04T02:46:46.350Z,1023.23
2023-02-04T02:47:46.490Z,1023.23
2023-02-04T02:48:46.632Z,1023.20
2023-02-04T02:49:46.821Z,1023.18
2023-02-04T02:50:47.833Z,1023.15
2023-02-04T02:51:48.722Z,1023.24
2023-02-04T02:52:48.206Z,1023.27
2023-02-04T02:53:48.447Z,1023.25
2023-02-04T02:54:47.691Z,1023.25
2023-02-04T02:55:48.768Z,1023.26
2023-02-04T02:56:48.004Z,1023.33
2023-02-04T02:57:49.718Z,1023.24
2023-02-04T02:58:48.822Z,1023.21
2023-02-04T02:59:48.422Z,1023.28
2023-02-04T03:00:48.577Z,1023.26
2023-02-04T03:01:48.725Z,1023.36
2023-02-04T03:02:48.914Z,1023.38
2023-02-04T03:03:49.098Z,1023.34
2023-02-04T03:04:49.237Z,1023.25
2023-02-04T03:05:49.392Z,1023.40
2023-02-04T03:06:49.530Z,1023.37
2023-02-04T03:07:49.682Z,1023.36
2023-02-04T03:08:49.851Z,1023.32
2023-02-04T03:09:50.779Z,1023.32
2023-02-04T03:10:50.160Z,1023.32
2023-02-04T03:11:50.305Z,1023.32
2023-02-04T03:12:52.134Z,1023.36
2023-02-04T03:13:50.639Z,1023.36
2023-02-04T03:14:51.770Z,1023.36
2023-02-04T03:15:51.848Z,1023.42
2023-02-04T03:16:51.145Z,1023.39
2023-02-04T03:17:51.814Z,1023.42
2023-02-04T03:18:51.439Z,1023.34
2023-02-04T03:19:51.600Z,1023.39
2023-02-04T03:20:51.728Z,1023.41
2023-02-04T03:21:52.882Z,1023.36
2023-02-04T03:22:52.776Z,1023.40
2023-02-04T03:23:52.133Z,1023.42
2023-02-04T03:24:53.296Z,1023.43
2023-02-04T03:25:52.425Z,1023.40
2023-02-04T03:26:52.569Z,1023.45
2023-02-04T03:27:52.773Z,1023.42
2023-02-04T03:28:54.780Z,1023.46
2023-02-04T03:29:53.159Z,1023.44
2023-02-04T03:30:54.337Z,1023.48
2023-02-04T03:31:53.566Z,1023.52
2023-02-04T03:32:55.284Z,1023.45
2023-02-04T03:33:55.779Z,1023.57
2023-02-04T03:34:54.105Z,1023.54
2023-02-04T03:35:54.779Z,1023.51
2023-02-04T03:36:54.419Z,1023.51
2023-02-04T03:37:54.595Z,1023.48
2023-02-04T03:38:55.319Z,1023.51
2023-02-04T03:39:54.978Z,1023.55
2023-02-04T03:40:55.149Z,1023.57
2023-02-04T03:41:55.290Z,1023.57
2023-02-04T03:42:55.415Z,1023.48
2023-02-04T03:43:55.586Z,1023.56
2023-02-04T03:44:55.737Z,1023.55
2023-02-04T03:45:55.954Z,1023.50
2023-02-04T03:46:56.124Z,1023.55
2023-02-04T03:47:56.273Z,1023.60
2023-02-04T03:48:56.451Z,1023.56
2023-02-04T03:49:57.339Z,1023.53
2023-02-04T03:50:57.335Z,1023.57
2023-02-04T03:51:57.824Z,1023.58
2023-02-04T03:52:58.785Z,1023.57
2023-02-04T03:53:57.784Z,1023.58
2023-02-04T03:54:57.831Z,1023.50
2023-02-04T03:55:57.524Z,1023.58
2023-02-04T03:56:58.292Z,1023.56
2023-02-04T03:58:01.291Z,1023.61
2023-02-04T03:58:58.840Z,1023.58
2023-02-04T03:59:58.228Z,1023.61
2023-02-04T04:00:58.428Z,1023.61
2023-02-04T04:01:58.660Z,1023.63
2023-02-04T04:02:58.765Z,1023.67
2023-02-04T04:04:02.292Z,1023.61
2023-02-04T04:04:59.146Z,1023.67
2023-02-04T04:05:59.309Z,1023.67
2023-02-04T04:06:59.473Z,1023.67
2023-02-04T04:08:00.298Z,1023.67
2023-02-04T04:08:59.840Z,1023.77
2023-02-04T04:10:00.000Z,1023.81
2023-02-04T04:11:00.155Z,1023.76
2023-02-04T04:12:00.318Z,1023.75
2023-02-04T04:13:00.465Z,1023.74
2023-02-04T04:14:00.612Z,1023.77
2023-02-04T04:15:02.321Z,1023.76
2023-02-04T04:16:01.868Z,1023.78
2023-02-04T04:17:01.101Z,1023.79
2023-02-04T04:18:02.160Z,1023.78
2023-02-04T04:19:01.383Z,1023.87
2023-02-04T04:20:01.558Z,1023.90
2023-02-04T04:21:01.845Z,1023.93
2023-02-04T04:22:02.792Z,1023.94
2023-02-04T04:23:02.076Z,1023.95
2023-02-04T04:24:02.790Z,1023.87
2023-02-04T04:25:02.437Z,1023.88
2023-02-04T04:26:02.620Z,1023.96
2023-02-04T04:27:02.788Z,1023.93
2023-02-04T04:28:02.989Z,1024.03
2023-02-04T04:29:03.084Z,1024.06
2023-02-04T04:30:03.264Z,1024.09
2023-02-04T04:31:03.543Z,1024.11
2023-02-04T04:32:03.792Z,1024.05
2023-02-04T04:33:04.791Z,1024.10
2023-02-04T04:34:04.802Z,1024.09
2023-02-04T04:35:04.194Z,1024.09
2023-02-04T04:36:04.384Z,1024.14
2023-02-04T04:37:04.583Z,1024.22
2023-02-04T04:38:05.756Z,1024.24
2023-02-04T04:39:04.883Z,1024.17
2023-02-04T04:40:05.030Z,1024.23
2023-02-04T04:41:06.297Z,1024.18
2023-02-04T04:42:05.444Z,1024.21
2023-02-04T04:43:05.622Z,1024.16
2023-02-04T04:44:05.844Z,1024.22
2023-02-04T04:45:06.833Z,1024.15
2023-02-04T04:46:06.794Z,1024.03
2023-02-04T04:47:06.439Z,1024.11
2023-02-04T04:48:07.290Z,1024.08
2023-02-04T04:49:06.846Z,1024.15
2023-02-04T04:50:06.997Z,1024.12
2023-02-04T04:51:07.834Z,1024.17
2023-02-04T04:52:08.336Z,1024.22
2023-02-04T04:53:08.330Z,1024.18
2023-02-04T04:54:07.846Z,1024.27
2023-02-04T04:55:07.903Z,1024.26
2023-02-04T04:56:08.064Z,1024.24
2023-02-04T04:57:08.232Z,1024.18
2023-02-04T04:58:08.392Z,1024.25
2023-02-04T04:59:08.562Z,1024.18
2023-02-04T05:00:41.172Z,1024.15
2023-02-04T05:01:08.966Z,1024.12
2023-02-04T05:02:09.152Z,1024.16
2023-02-04T05:03:10.330Z,1024.09
2023-02-04T05:04:09.485Z,1024.09
2023-02-04T05:05:10.371Z,1024.18
2023-02-04T05:06:09.798Z,1024.13
2023-02-04T05:07:10.832Z,1024.18
2023-02-04T05:08:10.860Z,1024.19
2023-02-04T05:09:10.837Z,1024.28
2023-02-04T05:10:10.506Z,1024.23
2023-02-04T05:11:10.711Z,1024.35
2023-02-04T05:12:11.380Z,1024.33
2023-02-04T05:13:11.011Z,1024.40
2023-02-04T05:14:11.165Z,1024.36
2023-02-04T05:15:11.357Z,1024.34
2023-02-04T05:16:11.559Z,1024.35
2023-02-04T05:17:11.727Z,1024.39
2023-02-04T05:18:11.898Z,1024.41
2023-02-04T05:19:12.064Z,1024.38
2023-02-04T05:20:12.239Z,1024.36
2023-02-04T05:21:13.355Z,1024.33
2023-02-04T05:22:12.603Z,1024.40
2023-02-04T05:23:12.768Z,1024.34
2023-02-04T05:24:12.944Z,1024.44
2023-02-04T05:25:13.842Z,1024.40
2023-02-04T05:26:22.160Z,1024.41
2023-02-04T05:27:15.505Z,1024.40
2023-02-04T05:28:13.682Z,1024.30
2023-02-04T05:29:13.842Z,1024.34
2023-02-04T05:30:14.016Z,1024.30
2023-02-04T05:31:14.311Z,1024.32
2023-02-04T05:32:15.411Z,1024.35
2023-02-04T05:33:14.573Z,1024.32
2023-02-04T05:34:14.794Z,1024.40
2023-02-04T05:35:16.346Z,1024.27
2023-02-04T05:36:16.847Z,1024.27
2023-02-04T05:37:15.364Z,1024.36
2023-02-04T05:38:15.538Z,1024.36
2023-02-04T05:39:15.689Z,1024.44
2023-02-04T05:40:15.882Z,1024.39
2023-02-04T05:41:15.963Z,1024.43
2023-02-04T05:42:16.134Z,1024.43
2023-02-04T05:43:16.263Z,1024.48
2023-02-04T05:44:18.341Z,1024.46
2023-02-04T05:45:16.612Z,1024.51
2023-02-04T05:46:17.376Z,1024.59
2023-02-04T05:47:18.024Z,1024.60
2023-02-04T05:48:17.123Z,1024.54
2023-02-04T05:49:17.850Z,1024.60
2023-02-04T05:50:18.393Z,1024.61
2023-02-04T05:51:18.350Z,1024.69
2023-02-04T05:52:18.844Z,1024.63
2023-02-04T05:53:18.085Z,1024.68
2023-02-04T05:54:18.254Z,1024.77
2023-02-04T05:55:18.443Z,1024.77
2023-02-04T05:56:18.619Z,1024.79
2023-02-04T05:57:18.776Z,1024.77
2023-02-04T05:58:18.923Z,1024.79
2023-02-04T05:59:19.055Z,1024.78
2023-02-04T06:00:19.293Z,1024.77
2023-02-04T06:01:19.441Z,1024.81
2023-02-04T06:02:19.901Z,1024.91
2023-02-04T06:03:19.884Z,1024.88
2023-02-04T06:04:21.874Z,1024.86
2023-02-04T06:05:20.888Z,1024.94
2023-02-04T06:06:20.307Z,1024.90
2023-02-04T06:07:20.510Z,1024.88
2023-02-04T06:08:21.849Z,1024.87
2023-02-04T06:09:20.823Z,1024.85
2023-02-04T06:10:21.001Z,1024.80
2023-02-04T06:11:21.160Z,1024.81
2023-02-04T06:12:21.846Z,1024.82
2023-02-04T06:13:21.481Z,1024.86
2023-02-04T06:14:21.648Z,1024.80
2023-02-04T06:15:21.829Z,1024.81
2023-02-04T06:16:22.029Z,1024.81
2023-02-04T06:17:22.105Z,1024.89
2023-02-04T06:18:22.849Z,1024.95
2023-02-04T06:19:22.516Z,1024.88
2023-02-04T06:20:22.722Z,1024.90
2023-02-04T06:21:22.900Z,1024.96
2023-02-04T06:22:24.852Z,1024.95
2023-02-04T06:23:23.238Z,1024.98
2023-02-04T06:24:24.397Z,1024.96
2023-02-04T06:25:24.215Z,1025.06
2023-02-04T06:26:24.351Z,1025.04
2023-02-04T06:27:23.976Z,1025.06
2023-02-04T06:28:24.148Z,1025.09
2023-02-04T06:29:24.337Z,1025.13
2023-02-04T06:30:24.528Z,1025.14
2023-02-04T06:31:24.806Z,1025.11
2023-02-04T06:32:24.950Z,1025.08
2023-02-04T06:33:25.855Z,1025.11
2023-02-04T06:34:25.269Z,1025.19
2023-02-04T06:35:26.367Z,1025.15
2023-02-04T06:36:25.671Z,1025.07
2023-02-04T06:37:25.887Z,1025.09
2023-02-04T06:38:26.115Z,1025.08
2023-02-04T06:39:27.855Z,1025.00
2023-02-04T06:40:28.308Z,1025.05
2023-02-04T06:41:26.698Z,1025.03
2023-02-04T06:42:27.893Z,1025.08
2023-02-04T06:43:27.862Z,1025.07
2023-02-04T06:44:27.224Z,1025.19
2023-02-04T06:45:27.434Z,1025.08
2023-02-04T06:46:28.467Z,1025.07
2023-02-04T06:47:28.403Z,1025.20
2023-02-04T06:48:29.629Z,1025.17
2023-02-04T06:49:28.146Z,1025.07
2023-02-04T06:50:28.335Z,1025.10
2023-02-04T06:51:28.488Z,1025.21
2023-02-04T06:52:28.660Z,1025.09
2023-02-04T06:53:28.985Z,1025.14
2023-02-04T06:54:29.000Z,1025.14
2023-02-04T06:55:29.724Z,1025.13
2023-02-04T06:56:29.356Z,1025.20
2023-02-04T06:57:29.548Z,1025.24
2023-02-04T06:58:29.738Z,1025.24
2023-02-04T06:59:29.897Z,1025.21
2023-02-04T07:00:30.518Z,1025.29
2023-02-04T07:01:30.886Z,1025.24
2023-02-04T07:02:31.478Z,1025.24
2023-02-04T07:03:31.397Z,1025.24
2023-02-04T07:04:30.805Z,1025.28
2023-02-04T07:05:30.970Z,1025.32
2023-02-04T07:06:31.732Z,1025.32
2023-02-04T07:07:31.393Z,1025.28
2023-02-04T07:08:32.229Z,1025.27
2023-02-04T07:09:31.760Z,1025.27
2023-02-04T07:10:32.298Z,1025.34
2023-02-04T07:11:32.867Z,1025.34
2023-02-04T07:12:32.320Z,1025.37
2023-02-04T07:13:33.369Z,1025.34
2023-02-04T07:14:32.645Z,1025.40
2023-02-04T07:15:35.441Z,1025.39
2023-02-04T07:16:33.057Z,1025.42
2023-02-04T07:17:33.255Z,1025.40
2023-02-04T07:18:35.868Z,1025.43
2023-02-04T07:19:33.622Z,1025.46
2023-02-04T07:20:35.661Z,1025.42
2023-02-04T07:21:34.949Z,1025.49
2023-02-04T07:22:34.123Z,1025.47
2023-02-04T07:23:34.872Z,1025.45
2023-02-04T07:24:34.571Z,1025.42
2023-02-04T07:25:35.368Z,1025.50
2023-02-04T07:26:34.902Z,1025.49
2023-02-04T07:27:35.067Z,1025.41
2023-02-04T07:28:35.868Z,1025.46
2023-02-04T07:29:35.918Z,1025.55
2023-02-04T07:30:36.015Z,1025.56
2023-02-04T07:31:35.777Z,1025.59
2023-02-04T07:32:35.920Z,1025.59
2023-02-04T07:33:36.870Z,1025.55
2023-02-04T07:34:36.872Z,1025.62
2023-02-04T07:35:36.413Z,1025.59
2023-02-04T07:36:36.612Z,1025.54
2023-02-04T07:37:37.876Z,1025.57
2023-02-04T07:38:37.017Z,1025.55
2023-02-04T07:39:37.859Z,1025.66
2023-02-04T07:40:38.397Z,1025.61
2023-02-04T07:41:37.541Z,1025.55
2023-02-04T07:42:37.746Z,1025.59
2023-02-04T07:43:38.867Z,1025.55
2023-02-04T07:44:38.152Z,1025.59
2023-02-04T07:45:38.350Z,1025.53
2023-02-04T07:46:39.012Z,1025.54
2023-02-04T07:47:38.693Z,1025.52
2023-02-04T07:48:38.853Z,1025.56
2023-02-04T07:49:39.015Z,1025.55
2023-02-04T07:50:39.186Z,1025.55
2023-02-04T07:51:39.413Z,1025.53
2023-02-04T07:52:39.570Z,1025.59
2023-02-04T07:53:40.404Z,1025.59
2023-02-04T07:54:39.926Z,1025.54
2023-02-04T07:55:40.121Z,1025.53
2023-02-04T07:56:40.897Z,1025.43
2023-02-04T07:57:40.403Z,1025.46
2023-02-04T07:58:40.577Z,1025.45
2023-02-04T07:59:40.740Z,1025.44
2023-02-04T08:00:41.411Z,1025.50
2023-02-04T08:01:41.085Z,1025.40
2023-02-04T08:02:41.232Z,1025.46
2023-02-04T08:03:42.735Z,1025.48
2023-02-04T08:04:42.598Z,1025.52
2023-02-04T08:05:41.769Z,1025.49
2023-02-04T08:06:42.936Z,1025.44
2023-02-04T08:07:42.861Z,1025.45
2023-02-04T08:08:42.245Z,1025.46
2023-02-04T08:09:42.405Z,1025.47
2023-02-04T08:10:42.548Z,1025.45
2023-02-04T08:11:42.707Z,1025.42
2023-02-04T08:12:42.870Z,1025.43
2023-02-04T08:13:43.044Z,1025.45
2023-02-04T08:14:43.225Z,1025.44
2023-02-04T08:15:44.423Z,1025.41
2023-02-04T08:16:43.588Z,1025.37
2023-02-04T08:17:43.760Z,1025.31
2023-02-04T08:18:43.943Z,1025.22
2023-02-04T08:19:44.117Z,1025.18
2023-02-04T08:20:44.291Z,1025.02
2023-02-04T08:21:44.463Z,1024.99
2023-02-04T08:22:44.630Z,1024.94
2023-02-04T08:23:44.824Z,1024.93
2023-02-04T08:24:45.019Z,1025.00
2023-02-04T08:25:45.182Z,1024.96
2023-02-04T08:27:06.370Z,1025.03
2023-02-04T08:27:46.529Z,1025.08
2023-02-04T08:28:45.720Z,1025.03
2023-02-04T08:29:45.895Z,1025.07
2023-02-04T08:30:46.961Z,1025.07
2023-02-04T08:31:46.964Z,1025.07
2023-02-04T08:32:46.395Z,1025.05
2023-02-04T08:33:47.406Z,1025.11
2023-02-04T08:34:46.697Z,1025.11
2023-02-04T08:35:46.876Z,1025.08
2023-02-04T08:36:47.077Z,1025.09
2023-02-04T08:37:47.855Z,1025.06
2023-02-04T08:38:47.381Z,1025.08
2023-02-04T08:39:47.586Z,1025.10
2023-02-04T08:40:47.772Z,1025.18
2023-02-04T08:41:47.952Z,1025.21
2023-02-04T08:42:48.109Z,1025.28
2023-02-04T08:43:48.901Z,1025.25
2023-02-04T08:44:48.460Z,1025.29
2023-02-04T08:45:48.662Z,1025.27
2023-02-04T08:46:49.440Z,1025.35
2023-02-04T08:47:49.930Z,1025.37
2023-02-04T08:48:49.867Z,1025.49
2023-02-04T08:49:49.424Z,1025.50
2023-02-04T08:50:50.385Z,1025.51
2023-02-04T08:51:49.807Z,1025.47
2023-02-04T08:52:50.880Z,1025.49
2023-02-04T08:53:50.888Z,1025.49
2023-02-04T08:54:50.923Z,1025.56
2023-02-04T08:55:50.625Z,1025.59
2023-02-04T08:56:51.386Z,1025.58
2023-02-04T08:57:51.023Z,1025.65
2023-02-04T08:58:51.202Z,1025.66
2023-02-04T08:59:51.345Z,1025.65
2023-02-04T09:00:51.586Z,1025.61
2023-02-04T09:01:52.499Z,1025.71
2023-02-04T09:02:51.916Z,1025.64
2023-02-04T09:03:52.054Z,1025.69
2023-02-04T09:04:52.193Z,1025.71
2023-02-04T09:05:53.396Z,1025.63
2023-02-04T09:06:52.946Z,1025.68
2023-02-04T09:07:53.400Z,1025.65
2023-02-04T09:08:53.441Z,1025.70
2023-02-04T09:09:53.056Z,1025.69
2023-02-04T09:10:53.202Z,1025.67
2023-02-04T09:11:53.906Z,1025.72
2023-02-04T09:12:53.541Z,1025.70
2023-02-04T09:13:53.756Z,1025.67
2023-02-04T09:14:53.925Z,1025.69
2023-02-04T09:15:54.430Z,1025.72
2023-02-04T09:16:54.217Z,1025.66
2023-02-04T09:17:54.345Z,1025.65
2023-02-04T09:18:54.515Z,1025.70
2023-02-04T09:19:54.683Z,1025.64
2023-02-04T09:20:56.405Z,1025.66
2023-02-04T09:21:55.087Z,1025.65
2023-02-04T09:22:55.273Z,1025.67
2023-02-04T09:23:55.495Z,1025.69
2023-02-04T09:24:56.444Z,1025.70
2023-02-04T09:25:55.827Z,1025.70
2023-02-04T09:26:56.019Z,1025.67
2023-02-04T09:27:56.215Z,1025.69
2023-02-04T09:28:56.418Z,1025.63
2023-02-04T09:29:56.600Z,1025.66
2023-02-04T09:30:56.832Z,1025.64
2023-02-04T09:31:56.957Z,1025.57
2023-02-04T09:32:57.155Z,1025.52
2023-02-04T09:33:57.346Z,1025.53
2023-02-04T09:34:57.519Z,1025.40
2023-02-04T09:35:59.419Z,1025.36
2023-02-04T09:36:58.421Z,1025.29
2023-02-04T09:37:58.068Z,1025.26
2023-02-04T09:38:58.282Z,1025.29
2023-02-04T09:39:58.968Z,1025.18
2023-02-04T09:40:59.930Z,1025.17
2023-02-04T09:41:59.419Z,1025.09
2023-02-04T09:42:59.072Z,1025.03
2023-02-04T09:43:59.239Z,1024.96
2023-02-04T09:44:59.445Z,1024.96
2023-02-04T09:45:59.699Z,1024.85
2023-02-04T09:46:59.761Z,1024.82
2023-02-04T09:48:00.071Z,1024.82
2023-02-04T09:49:01.957Z,1024.78
2023-02-04T09:50:00.360Z,1024.82
2023-02-04T09:51:00.544Z,1024.86
2023-02-04T09:52:00.716Z,1024.83
2023-02-04T09:53:01.030Z,1024.84
2023-02-04T09:54:03.919Z,1024.87
2023-02-04T09:55:01.313Z,1024.93
2023-02-04T09:56:02.925Z,1024.97
2023-02-04T09:57:02.481Z,1024.96
2023-02-04T09:58:02.460Z,1025.02
2023-02-04T09:59:02.125Z,1024.98
2023-02-04T10:00:02.322Z,1024.92
2023-02-04T10:01:02.575Z,1024.89
2023-02-04T10:02:02.956Z,1024.90
2023-02-04T10:03:03.409Z,1024.84
2023-02-04T10:04:03.149Z,1024.76
2023-02-04T10:05:03.909Z,1024.71
2023-02-04T10:06:04.440Z,1024.77
2023-02-04T10:07:03.601Z,1024.74
2023-02-04T10:08:05.410Z,1024.70
2023-02-04T10:09:03.946Z,1024.74
2023-02-04T10:10:04.109Z,1024.67
2023-02-04T10:11:04.271Z,1024.65
2023-02-04T10:12:04.456Z,1024.55
2023-02-04T10:13:05.906Z,1024.43
2023-02-04T10:14:04.779Z,1024.19
2023-02-04T10:15:04.957Z,1024.09
2023-02-04T10:16:06.402Z,1023.93
2023-02-04T10:17:05.940Z,1023.89
2023-02-04T10:18:06.262Z,1023.84
2023-02-04T10:19:05.953Z,1023.76
2023-02-04T10:20:06.398Z,1023.77
2023-02-04T10:21:06.056Z,1023.72
2023-02-04T10:22:06.225Z,1023.71
2023-02-04T10:23:07.401Z,1023.73
2023-02-04T10:24:06.703Z,1023.75
2023-02-04T10:25:07.767Z,1023.80
2023-02-04T10:26:07.423Z,1023.77
2023-02-04T10:27:08.925Z,1023.79
2023-02-04T10:28:07.392Z,1023.73
2023-02-04T10:29:09.746Z,1023.87
2023-02-04T10:30:08.603Z,1023.93
2023-02-04T10:31:07.833Z,1024.05
2023-02-04T10:32:41.875Z,1024.13
2023-02-04T10:33:08.993Z,1024.25
2023-02-04T10:34:08.301Z,1024.27
2023-02-04T10:35:09.375Z,1024.35
2023-02-04T10:36:10.486Z,1024.47
2023-02-04T10:37:08.870Z,1024.42
2023-02-04T10:38:09.058Z,1024.53
2023-02-04T10:39:09.989Z,1024.57
2023-02-04T10:40:09.411Z,1024.57
2023-02-04T10:41:09.594Z,1024.54
2023-02-04T10:42:10.449Z,1024.59
2023-02-04T10:43:09.963Z,1024.59
2023-02-04T10:44:10.989Z,1024.57
2023-02-04T10:45:10.282Z,1024.34
2023-02-04T10:46:10.527Z,1024.34
2023-02-04T10:47:13.445Z,1024.39
2023-02-04T10:48:10.788Z,1024.36
2023-02-04T10:49:10.965Z,1024.36
2023-02-04T10:50:11.957Z,1024.43
2023-02-04T10:51:11.380Z,1024.42
2023-02-04T10:52:12.447Z,1024.44
2023-02-04T10:53:12.449Z,1024.46
2023-02-04T10:54:11.859Z,1024.49
2023-02-04T10:55:11.970Z,1024.67
2023-02-04T10:56:12.164Z,1024.61
2023-02-04T10:57:12.331Z,1024.65
2023-02-04T10:58:13.449Z,1024.68
2023-02-04T10:59:13.347Z,1024.69
2023-02-04T11:00:12.913Z,1024.72
2023-02-04T11:01:14.461Z,1024.70
2023-02-04T11:02:14.255Z,1024.68
2023-02-04T11:03:13.438Z,1024.66
2023-02-04T11:04:14.952Z,1024.69
2023-02-04T11:05:13.845Z,1024.68
2023-02-04T11:06:14.043Z,1024.64
2023-02-04T11:07:15.323Z,1024.66
2023-02-04T11:08:14.456Z,1024.64
2023-02-04T11:09:15.498Z,1024.65
2023-02-04T11:10:15.501Z,1024.58
2023-02-04T11:11:14.899Z,1024.61
2023-02-04T11:12:15.068Z,1024.65
2023-02-04T11:13:15.252Z,1024.69
2023-02-04T11:14:16.001Z,1024.69
2023-02-04T11:15:15.537Z,1024.64
2023-02-04T11:16:15.819Z,1024.62
2023-02-04T11:17:16.505Z,1024.63
2023-02-04T11:18:16.512Z,1024.61
2023-02-04T11:19:16.346Z,1024.55
2023-02-04T11:20:17.114Z,1024.59
2023-02-04T11:21:17.854Z,1024.53
2023-02-04T11:22:17.016Z,1024.53
2023-02-04T11:23:16.945Z,1024.54
2023-02-04T11:24:17.168Z,1024.49
2023-02-04T11:25:18.032Z,1024.40
2023-02-04T11:26:18.503Z,1024.45
2023-02-04T11:27:17.786Z,1024.38
2023-02-04T11:28:18.029Z,1024.31
2023-02-04T11:29:19.964Z,1024.18
2023-02-04T11:30:18.360Z,1024.06
2023-02-04T11:31:18.615Z,1023.97
2023-02-04T11:32:20.787Z,1023.94
2023-02-04T11:33:18.959Z,1023.88
2023-02-04T11:34:19.155Z,1023.77
2023-02-04T11:35:19.353Z,1023.74
2023-02-04T11:36:20.464Z,1023.73
2023-02-04T11:37:20.511Z,1023.71
2023-02-04T11:38:20.466Z,1023.71
2023-02-04T11:39:20.109Z,1023.69
2023-02-04T11:40:20.970Z,1023.74
2023-02-04T11:41:20.963Z,1023.71
2023-02-04T11:42:20.544Z,1023.72
2023-02-04T11:43:22.331Z,1023.70
2023-02-04T11:44:21.853Z,1023.73
2023-02-04T11:45:21.017Z,1023.74
2023-02-04T11:46:22.050Z,1023.73
2023-02-04T11:47:22.467Z,1023.71
2023-02-04T11:48:22.009Z,1023.76
2023-02-04T11:49:21.665Z,1023.72
2023-02-04T11:50:21.860Z,1023.77
2023-02-04T11:51:22.950Z,1023.79
2023-02-04T11:52:23.228Z,1023.84
2023-02-04T11:53:22.390Z,1023.90
2023-02-04T11:54:23.964Z,1023.82
2023-02-04T11:55:22.713Z,1023.73
2023-02-04T11:56:23.562Z,1023.76
2023-02-04T11:57:23.086Z,1023.75
2023-02-04T11:58:23.292Z,1023.61
2023-02-04T11:59:23.442Z,1023.59
2023-02-04T12:00:23.595Z,1023.48
2023-02-04T12:01:23.764Z,1023.48
2023-02-04T12:02:23.990Z,1023.44
2023-02-04T12:03:25.542Z,1023.50
2023-02-04T12:04:24.301Z,1023.45
2023-02-04T12:05:24.452Z,1023.55
2023-02-04T12:06:25.519Z,1023.54
2023-02-04T12:07:26.483Z,1023.56